Time;durP1;ratioP1;P1;durP2;ratioP2;P2;SDS_P1;SDS_P2;PMS_P1;PMS_P2;Temp;Humidity;BMP_temperature;BMP_pressure;BME280_temperature;BME280_humidity;BME280_pressure;Samples;Min_cycle;Max_cycle;Signal;HPM_P1;HPM_P2
2021/12/11 00:00:31;;;;;;;1.48;0.90;;;2.50;99.90;;;;;;5077662;28;20020;-78
2021/12/11 00:03:07;;;;;;;1.88;0.93;;;2.40;99.90;;;;;;5095878;28;20027;-79
2021/12/11 00:05:35;;;;;;;1.70;1.00;;;2.40;99.90;;;;;;5096070;28;20020;-79
2021/12/11 00:08:01;;;;;;;0.95;0.77;;;2.30;99.90;;;;;;5077430;28;20020;-79
2021/12/11 00:10:36;;;;;;;1.00;0.82;;;2.30;99.90;;;;;;5077475;28;20069;-79
2021/12/11 00:13:06;;;;;;;1.23;0.90;;;2.30;99.90;;;;;;5077439;28;20463;-79
2021/12/11 00:15:36;;;;;;;1.88;1.00;;;2.30;99.90;;;;;;5077324;28;20468;-78
2021/12/11 00:18:17;;;;;;;1.65;1.13;;;2.30;99.90;;;;;;5077360;28;20387;-79
2021/12/11 00:21:08;;;;;;;1.17;0.88;;;2.30;99.90;;;;;;5094756;28;20020;-79
2021/12/11 00:23:40;;;;;;;1.63;1.02;;;2.30;99.90;;;;;;5076659;28;20113;-79
2021/12/11 00:26:09;;;;;;;0.80;0.80;;;2.40;99.90;;;;;;5077811;28;20500;-80
2021/12/11 00:28:48;;;;;;;1.40;1.00;;;2.40;99.90;;;;;;5095297;28;20029;-79
2021/12/11 00:31:15;;;;;;;4.00;1.20;;;2.40;99.90;;;;;;5077091;28;20035;-79
2021/12/11 00:33:42;;;;;;;0.75;0.75;;;2.30;99.90;;;;;;5095337;28;20024;-79
2021/12/11 00:36:10;;;;;;;1.13;0.80;;;2.30;99.90;;;;;;5095173;28;20031;-79
2021/12/11 00:38:38;;;;;;;1.08;0.93;;;2.30;99.90;;;;;;5076723;28;20044;-79
2021/12/11 00:41:08;;;;;;;3.42;0.90;;;2.30;99.90;;;;;;5076887;28;20491;-79
2021/12/11 00:43:35;;;;;;;1.17;0.88;;;2.40;99.90;;;;;;5094972;28;20031;-79
2021/12/11 00:46:05;;;;;;;0.80;0.73;;;2.40;99.90;;;;;;5095067;28;20020;-79
2021/12/11 00:48:31;;;;;;;1.67;0.80;;;2.40;99.90;;;;;;5076665;28;20491;-79
2021/12/11 00:51:11;;;;;;;2.35;1.00;;;2.40;99.90;;;;;;5076674;28;20515;-79
2021/12/11 00:53:37;;;;;;;1.38;0.80;;;2.40;99.90;;;;;;5094818;28;20016;-79
2021/12/11 00:56:09;;;;;;;2.25;1.00;;;2.40;99.90;;;;;;5076593;28;20024;-79
2021/12/11 00:58:37;;;;;;;1.58;0.90;;;2.50;99.90;;;;;;5076941;28;20032;-79
2021/12/11 01:01:06;;;;;;;2.00;0.80;;;2.40;99.90;;;;;;5076571;28;20020;-79
2021/12/11 01:03:40;;;;;;;2.40;0.90;;;2.40;99.90;;;;;;5076485;28;20038;-79
2021/12/11 01:06:07;;;;;;;;;;;2.40;99.90;;;;;;5077040;28;20368;-78
2021/12/11 01:08:39;;;;;;;0.80;0.70;;;2.40;99.90;;;;;;5076317;28;19994;-79
2021/12/11 01:11:10;;;;;;;0.80;0.80;;;2.40;99.90;;;;;;5094571;28;20016;-79
2021/12/11 01:13:43;;;;;;;1.00;0.65;;;2.40;99.90;;;;;;5076474;28;20035;-79
2021/12/11 01:16:13;;;;;;;1.10;0.75;;;2.40;99.90;;;;;;5076239;28;20027;-79
2021/12/11 01:18:42;;;;;;;0.60;0.60;;;2.40;99.90;;;;;;5094760;28;20036;-79
2021/12/11 01:21:31;;;;;;;0.95;0.63;;;2.40;99.90;;;;;;5094618;28;20455;-79
2021/12/11 01:24:16;;;;;;;2.10;0.90;;;2.40;99.90;;;;;;5076403;28;20035;-79
2021/12/11 01:26:46;;;;;;;1.73;0.80;;;2.40;99.90;;;;;;5076099;28;20031;-79
2021/12/11 01:29:12;;;;;;;1.65;0.80;;;2.40;99.90;;;;;;5076057;28;20020;-78
2021/12/11 01:31:39;;;;;;;0.95;0.80;;;2.40;99.90;;;;;;5074969;28;20031;-79
2021/12/11 01:34:05;;;;;;;1.83;0.68;;;2.40;99.90;;;;;;5075890;28;20020;-79
2021/12/11 01:36:32;;;;;;;0.95;0.60;;;2.30;99.90;;;;;;5075799;28;20486;-79
2021/12/11 01:39:03;;;;;;;0.70;0.70;;;2.40;99.90;;;;;;5075623;28;20484;-79
2021/12/11 01:41:29;;;;;;;1.25;0.60;;;2.40;99.90;;;;;;5075765;28;20111;-79
2021/12/11 01:43:58;;;;;;;1.40;0.82;;;2.40;99.90;;;;;;5075753;28;20081;-79
2021/12/11 01:46:26;;;;;;;1.02;0.75;;;2.40;99.90;;;;;;5075710;28;20111;-78
2021/12/11 01:48:58;;;;;;;0.60;0.60;;;2.50;99.90;;;;;;5075531;28;20026;-80
2021/12/11 01:51:55;;;;;;;2.95;0.60;;;2.50;99.90;;;;;;5094139;28;20027;-79
2021/12/11 01:54:35;;;;;;;0.93;0.70;;;2.40;99.90;;;;;;5075514;28;20107;-79
2021/12/11 01:57:15;;;;;;;0.73;0.70;;;2.40;99.90;;;;;;5093713;28;20023;-78
2021/12/11 01:59:44;;;;;;;0.75;0.60;;;2.40;99.90;;;;;;5075442;28;20027;-79
2021/12/11 02:02:42;;;;;;;1.88;0.60;;;2.40;99.90;;;;;;5093788;28;20016;-79
2021/12/11 02:05:11;;;;;;;1.23;0.70;;;2.50;99.90;;;;;;5072037;28;20036;-79
2021/12/11 02:07:47;;;;;;;0.82;0.70;;;2.40;99.90;;;;;;5075295;28;20020;-79
2021/12/11 02:10:25;;;;;;;1.25;0.85;;;2.40;99.90;;;;;;5075269;28;20438;-79
2021/12/11 02:12:51;;;;;;;2.15;0.68;;;2.50;99.90;;;;;;5075231;28;20031;-80
2021/12/11 02:15:31;;;;;;;0.77;0.70;;;2.40;99.90;;;;;;5093434;28;20027;-80
2021/12/11 02:18:19;;;;;;;0.60;0.60;;;2.50;99.90;;;;;;5075194;28;20020;-79
2021/12/11 02:20:55;;;;;;;1.27;0.70;;;2.50;99.90;;;;;;5075199;28;20012;-79
2021/12/11 02:23:23;;;;;;;0.63;0.50;;;2.50;99.90;;;;;;5075179;28;20498;-79
2021/12/11 02:25:52;;;;;;;0.60;0.60;;;2.50;99.90;;;;;;5093191;28;20024;-80
2021/12/11 02:28:26;;;;;;;0.60;0.60;;;2.50;99.90;;;;;;5093510;28;20027;-79
2021/12/11 02:31:05;;;;;;;0.50;0.50;;;2.50;99.90;;;;;;5075095;28;20032;-80
2021/12/11 02:33:44;;;;;;;0.70;0.70;;;2.50;99.90;;;;;;5074969;28;20114;-80
2021/12/11 02:36:33;;;;;;;0.50;0.50;;;2.60;99.90;;;;;;5074926;28;20020;-80
2021/12/11 02:39:07;;;;;;;0.55;0.55;;;2.60;99.90;;;;;;5074712;28;20058;-80
2021/12/11 02:41:49;;;;;;;1.80;0.57;;;2.60;99.90;;;;;;5075003;28;20017;-80
2021/12/11 02:44:23;;;;;;;0.60;0.60;;;2.70;99.90;;;;;;5074630;28;20080;-80
2021/12/11 02:47:01;;;;;;;;;;;2.70;99.90;;;;;;5093395;28;20028;-80
2021/12/11 02:49:58;;;;;;;0.50;0.43;;;2.80;99.90;;;;;;5074777;28;19954;-80
2021/12/11 02:52:41;;;;;;;0.50;0.50;;;2.70;99.90;;;;;;5093076;28;20040;-80
2021/12/11 02:55:10;;;;;;;0.70;0.70;;;2.70;99.90;;;;;;5074895;28;20025;-80
2021/12/11 02:57:49;;;;;;;0.70;0.50;;;2.70;99.90;;;;;;5074856;28;20024;-81
2021/12/11 03:00:24;;;;;;;0.65;0.50;;;2.60;99.90;;;;;;5074797;28;20024;-80
2021/12/11 03:03:00;;;;;;;0.40;0.40;;;2.60;99.90;;;;;;5074723;28;20027;-80
2021/12/11 03:05:35;;;;;;;0.80;0.60;;;2.60;99.90;;;;;;5074751;28;20040;-80
2021/12/11 03:08:05;;;;;;;0.63;0.47;;;2.50;99.90;;;;;;5074702;28;20048;-79
2021/12/11 03:10:32;;;;;;;0.70;0.70;;;2.50;99.90;;;;;;5092819;28;20024;-79
2021/12/11 03:12:58;;;;;;;0.65;0.65;;;2.60;99.90;;;;;;5074795;28;20024;-79
2021/12/11 03:15:24;;;;;;;1.05;0.63;;;2.60;99.90;;;;;;5093038;28;20031;-79
2021/12/11 03:17:50;;;;;;;1.20;1.15;;;2.60;99.90;;;;;;5092784;28;20020;-79
2021/12/11 03:20:18;;;;;;;1.40;1.30;;;2.50;99.90;;;;;;5074569;28;20024;-79
2021/12/11 03:22:46;;;;;;;0.90;0.90;;;2.40;99.90;;;;;;5092727;28;20024;-79
2021/12/11 03:25:16;;;;;;;0.90;0.90;;;2.30;99.90;;;;;;5074624;28;20025;-80
2021/12/11 03:27:42;;;;;;;3.83;0.70;;;2.30;99.90;;;;;;5093192;28;20032;-79
2021/12/11 03:30:13;;;;;;;0.60;0.60;;;2.20;99.90;;;;;;5074434;28;20024;-80
2021/12/11 03:32:38;;;;;;;1.05;0.73;;;2.20;99.90;;;;;;5074373;28;20028;-80
2021/12/11 03:35:07;;;;;;;0.60;0.60;;;2.20;99.90;;;;;;5074446;28;20020;-80
2021/12/11 03:37:33;;;;;;;0.65;0.65;;;2.20;99.90;;;;;;5074466;28;20024;-80
2021/12/11 03:40:00;;;;;;;1.10;1.00;;;2.30;99.90;;;;;;5074141;28;20050;-80
2021/12/11 03:42:34;;;;;;;1.08;1.00;;;2.20;99.90;;;;;;5074415;28;20032;-80
2021/12/11 03:45:02;;;;;;;0.75;0.75;;;2.20;99.90;;;;;;5058044;28;20059;-80
2021/12/11 03:47:32;;;;;;;0.70;0.60;;;2.10;99.90;;;;;;5074549;28;20107;-79
2021/12/11 03:49:58;;;;;;;0.70;0.70;;;2.10;99.90;;;;;;5074372;28;20089;-79
2021/12/11 03:52:25;;;;;;;0.60;0.60;;;2.00;99.90;;;;;;5074190;28;20090;-80
2021/12/11 03:54:52;;;;;;;0.75;0.75;;;2.20;99.90;;;;;;5093234;28;20046;-79
2021/12/11 03:57:22;;;;;;;0.70;0.70;;;2.30;99.90;;;;;;5077831;28;20097;-80
2021/12/11 03:59:49;;;;;;;0.88;0.80;;;2.40;99.90;;;;;;5078379;28;20402;-80
2021/12/11 04:02:22;;;;;;;0.98;0.90;;;2.50;99.90;;;;;;5077664;28;20026;-80
2021/12/11 04:04:52;;;;;;;1.15;0.90;;;2.40;99.90;;;;;;5077673;28;20024;-80
2021/12/11 04:07:22;;;;;;;0.90;0.90;;;2.50;99.90;;;;;;5077906;28;20073;-80
2021/12/11 04:09:48;;;;;;;2.05;0.90;;;2.50;99.90;;;;;;5077539;28;20016;-80
2021/12/11 04:12:15;;;;;;;1.27;1.00;;;2.50;99.90;;;;;;5077456;28;20035;-80
2021/12/11 04:14:45;;;;;;;1.40;1.10;;;2.40;99.90;;;;;;5095625;28;20013;-80
2021/12/11 04:17:14;;;;;;;9.98;4.65;;;2.40;99.90;;;;;;5060967;28;20035;-80
2021/12/11 04:19:40;;;;;;;6.10;3.45;;;2.50;99.90;;;;;;5077406;28;20020;-80
2021/12/11 04:22:07;;;;;;;4.35;2.30;;;2.50;99.90;;;;;;5077385;28;20027;-80
2021/12/11 04:24:36;;;;;;;2.97;1.88;;;2.50;99.90;;;;;;5077242;28;20055;-80
2021/12/11 04:27:05;;;;;;;2.58;1.50;;;2.40;99.90;;;;;;5077241;28;20024;-80
2021/12/11 04:29:32;;;;;;;2.45;1.35;;;2.60;99.90;;;;;;5077128;28;20024;-80
2021/12/11 04:32:01;;;;;;;2.33;1.73;;;2.50;99.90;;;;;;5077203;28;20409;-80
2021/12/11 04:34:27;;;;;;;3.78;2.03;;;2.50;99.90;;;;;;5077103;28;20451;-80
2021/12/11 04:37:00;;;;;;;1.85;1.52;;;2.60;99.90;;;;;;5077091;28;20391;-79
2021/12/11 04:39:33;;;;;;;4.53;2.08;;;2.50;99.90;;;;;;5095135;28;20127;-79
2021/12/11 04:42:07;;;;;;;1.48;1.38;;;2.50;99.90;;;;;;5095501;28;20190;-80
2021/12/11 04:44:39;;;;;;;2.78;1.90;;;2.50;99.90;;;;;;5095408;28;20095;-80
2021/12/11 04:47:15;;;;;;;2.00;1.50;;;2.40;99.90;;;;;;5095093;28;20027;-80
2021/12/11 04:49:50;;;;;;;3.40;2.13;;;2.30;99.90;;;;;;5076896;28;20023;-80
2021/12/11 04:52:33;;;;;;;2.95;1.85;;;2.30;99.90;;;;;;5076837;28;20385;-80
2021/12/11 04:55:20;;;;;;;2.85;2.22;;;2.20;99.90;;;;;;5076806;28;20031;-80
2021/12/11 05:01:03;;;;;;;5.15;2.70;;;2.00;99.90;;;;;;5094845;28;20050;-80
2021/12/11 05:03:50;;;;;;;2.33;1.50;;;2.10;99.90;;;;;;5076611;28;20115;-80
2021/12/11 05:11:37;;;;;;;2.35;1.90;;;2.10;99.90;;;;;;5094760;28;20411;-80
2021/12/11 05:14:05;;;;;;;2.85;2.08;;;2.00;99.90;;;;;;5076323;28;20464;-80
2021/12/11 05:16:31;;;;;;;3.25;2.00;;;2.10;99.90;;;;;;5076305;28;20016;-80
2021/12/11 05:18:57;;;;;;;3.28;2.13;;;2.00;99.90;;;;;;5094730;28;20017;-80
2021/12/11 05:21:23;;;;;;;3.60;2.10;;;1.90;99.90;;;;;;5094275;28;20028;-80
2021/12/11 05:23:51;;;;;;;2.55;1.30;;;1.90;99.90;;;;;;5094345;28;20039;-80
2021/12/11 05:26:18;;;;;;;2.30;1.85;;;1.90;99.90;;;;;;5094324;28;20016;-80
2021/12/11 05:28:45;;;;;;;5.05;2.10;;;2.10;99.90;;;;;;5094288;28;20028;-80
2021/12/11 05:31:12;;;;;;;5.10;1.95;;;2.10;99.90;;;;;;5094180;28;20028;-80
2021/12/11 05:33:41;;;;;;;2.17;1.70;;;2.20;99.90;;;;;;5075983;28;20028;-80
2021/12/11 05:36:09;;;;;;;2.35;1.67;;;2.30;99.90;;;;;;5075917;28;20027;-80
2021/12/11 05:38:39;;;;;;;3.72;1.70;;;2.40;99.90;;;;;;5093860;28;20400;-80
2021/12/11 05:41:08;;;;;;;3.75;1.92;;;2.40;99.90;;;;;;5075855;28;20012;-80
2021/12/11 05:43:34;;;;;;;2.10;1.70;;;2.40;99.90;;;;;;5075851;28;20419;-80
2021/12/11 05:46:00;;;;;;;2.00;1.80;;;2.50;99.90;;;;;;5075701;28;20032;-80
2021/12/11 05:48:28;;;;;;;1.92;1.52;;;2.50;99.90;;;;;;5075571;28;20030;-80
2021/12/11 05:50:57;;;;;;;3.42;1.50;;;2.40;99.90;;;;;;5093757;28;20024;-79
2021/12/11 05:53:24;;;;;;;1.40;1.30;;;2.30;99.90;;;;;;5093509;28;20034;-80
2021/12/11 05:55:54;;;;;;;1.50;1.40;;;2.30;99.90;;;;;;5075495;28;20069;-80
2021/12/11 05:58:44;;;;;;;1.35;1.25;;;2.40;99.90;;;;;;5093703;28;20548;-80
2021/12/11 06:01:10;;;;;;;1.50;1.40;;;2.40;99.90;;;;;;5093714;28;20070;-80
2021/12/11 06:03:37;;;;;;;1.95;1.48;;;2.30;99.90;;;;;;5093593;28;20027;-80
2021/12/11 06:06:04;;;;;;;1.45;1.33;;;2.40;99.90;;;;;;5075366;28;20314;-79
2021/12/11 06:08:31;;;;;;;1.65;1.30;;;2.40;99.90;;;;;;5093460;28;20103;-80
2021/12/11 06:10:58;;;;;;;1.50;1.27;;;2.50;99.90;;;;;;5093458;28;20047;-81
2021/12/11 06:13:25;;;;;;;1.95;1.60;;;2.40;99.90;;;;;;5075172;28;20487;-81
2021/12/11 06:15:52;;;;;;;2.42;1.52;;;2.40;99.90;;;;;;5075217;28;20020;-79
2021/12/11 06:18:19;;;;;;;2.17;1.73;;;2.40;99.90;;;;;;5074890;28;20128;-79
2021/12/11 06:20:47;;;;;;;1.88;1.60;;;2.30;99.90;;;;;;5075157;28;20024;-79
2021/12/11 06:23:14;;;;;;;2.25;1.75;;;2.40;99.90;;;;;;5075102;28;20137;-81
2021/12/11 06:25:40;;;;;;;1.95;1.77;;;2.30;99.90;;;;;;5075118;28;20077;-79
2021/12/11 06:28:06;;;;;;;2.22;1.90;;;2.20;99.90;;;;;;5075650;28;20036;-78
2021/12/11 06:30:33;;;;;;;1.88;1.50;;;2.20;99.90;;;;;;5093258;28;20024;-79
2021/12/11 06:32:59;;;;;;;2.08;1.25;;;2.20;99.90;;;;;;5074923;28;20395;-78
2021/12/11 06:35:41;;;;;;;1.45;1.35;;;2.20;99.90;;;;;;5074925;28;20439;-79
2021/12/11 06:38:10;;;;;;;2.58;1.27;;;2.30;99.90;;;;;;5074815;28;20487;-80
2021/12/11 06:40:36;;;;;;;2.00;1.50;;;2.40;99.90;;;;;;5075269;28;20024;-78
2021/12/11 06:43:02;;;;;;;2.80;1.50;;;2.40;99.90;;;;;;5074842;28;20089;-78
2021/12/11 06:45:28;;;;;;;2.40;1.98;;;2.30;99.90;;;;;;5074790;28;20428;-78
2021/12/11 06:47:55;;;;;;;2.55;1.65;;;2.40;99.90;;;;;;5092937;28;20107;-79
2021/12/11 06:50:21;;;;;;;2.83;1.77;;;2.50;99.90;;;;;;5074824;28;20125;-81
2021/12/11 06:52:49;;;;;;;4.85;2.50;;;2.60;99.90;;;;;;5074754;28;20078;-80
2021/12/11 06:55:17;;;;;;;2.38;1.83;;;2.60;99.90;;;;;;5092873;28;20031;-81
2021/12/11 06:57:44;;;;;;;3.53;2.35;;;2.50;99.90;;;;;;5074686;28;20020;-78
2021/12/11 07:00:12;;;;;;;2.38;1.77;;;2.60;99.90;;;;;;5093087;28;20024;-81
2021/12/11 07:02:38;;;;;;;2.67;2.20;;;2.60;99.90;;;;;;5074674;28;20024;-81
2021/12/11 07:05:05;;;;;;;3.60;2.10;;;2.60;99.90;;;;;;5074645;28;20051;-81
2021/12/11 07:07:34;;;;;;;3.03;2.20;;;2.70;99.90;;;;;;5093296;28;20024;-78
2021/12/11 07:10:01;;;;;;;1.98;1.80;;;2.60;99.90;;;;;;5092750;28;20027;-80
2021/12/11 07:12:28;;;;;;;2.88;2.03;;;2.60;99.90;;;;;;5074476;28;20028;-80
2021/12/11 07:14:54;;;;;;;2.15;1.95;;;2.60;99.90;;;;;;5074335;28;20028;-80
2021/12/11 07:17:21;;;;;;;4.50;2.55;;;2.60;99.90;;;;;;5092505;28;20017;-79
2021/12/11 07:19:47;;;;;;;3.63;2.17;;;2.60;99.90;;;;;;5074515;28;20392;-80
2021/12/11 07:22:14;;;;;;;3.47;1.90;;;2.60;99.90;;;;;;5074562;28;20027;-80
2021/12/11 07:24:56;;;;;;;3.35;2.58;;;2.70;99.90;;;;;;5074479;28;20073;-81
2021/12/11 07:27:22;;;;;;;3.03;2.33;;;2.70;99.90;;;;;;5074484;28;20051;-79
2021/12/11 07:29:48;;;;;;;3.13;2.65;;;2.70;99.90;;;;;;5095153;28;20051;-79
2021/12/11 07:32:14;;;;;;;3.67;2.05;;;2.60;99.90;;;;;;5096464;28;20024;-79
2021/12/11 07:34:41;;;;;;;6.50;3.70;;;2.70;99.90;;;;;;5096936;28;20021;-79
2021/12/11 07:37:07;;;;;;;3.95;2.65;;;2.60;99.90;;;;;;5078255;28;20165;-79
2021/12/11 07:39:33;;;;;;;7.72;5.43;;;2.60;99.90;;;;;;5074616;28;20079;-79
2021/12/11 07:41:59;;;;;;;8.65;5.53;;;2.60;99.90;;;;;;5091740;28;20403;-79
2021/12/11 07:44:26;;;;;;;7.75;6.00;;;2.50;99.90;;;;;;5091752;28;20028;-79
2021/12/11 07:46:53;;;;;;;14.48;8.32;;;2.50;99.90;;;;;;5075884;28;20021;-79
2021/12/11 07:49:20;;;;;;;8.30;5.20;;;2.40;99.90;;;;;;5091372;28;20052;-79
2021/12/11 07:51:48;;;;;;;5.57;3.80;;;2.50;99.90;;;;;;5091469;28;20060;-79
2021/12/11 07:54:14;;;;;;;15.07;9.77;;;2.50;99.90;;;;;;5091391;28;20032;-79
2021/12/11 07:56:40;;;;;;;10.40;5.22;;;2.50;99.90;;;;;;5075826;28;20468;-79
2021/12/11 07:59:08;;;;;;;5.25;4.47;;;2.50;99.90;;;;;;5075785;28;20047;-79
2021/12/11 08:01:37;;;;;;;4.80;4.30;;;2.60;99.90;;;;;;5091180;28;20025;-79
2021/12/11 08:04:04;;;;;;;8.95;4.57;;;2.60;99.90;;;;;;5075743;28;20025;-79
2021/12/11 08:06:32;;;;;;;4.25;3.85;;;2.60;99.90;;;;;;5091485;28;20047;-77
2021/12/11 08:08:58;;;;;;;6.95;4.90;;;2.60;99.90;;;;;;5074744;28;20082;-79
2021/12/11 08:11:28;;;;;;;6.70;4.78;;;2.60;99.90;;;;;;5075756;28;20035;-79
2021/12/11 08:13:56;;;;;;;9.50;7.10;;;2.60;99.90;;;;;;5091157;28;20032;-79
2021/12/11 08:16:32;;;;;;;6.65;5.43;;;2.50;99.90;;;;;;5091230;28;20020;-79
2021/12/11 08:18:58;;;;;;;6.88;5.55;;;2.60;99.90;;;;;;5091010;28;20024;-79
2021/12/11 08:21:24;;;;;;;6.43;4.90;;;2.60;99.90;;;;;;5075489;28;20031;-78
2021/12/11 08:23:54;;;;;;;5.07;3.80;;;2.60;99.90;;;;;;5075416;28;20479;-79
2021/12/11 08:26:22;;;;;;;6.38;5.45;;;2.70;99.90;;;;;;5091013;28;20035;-79
2021/12/11 08:28:51;;;;;;;5.65;4.65;;;2.70;99.90;;;;;;5091113;28;20036;-79
2021/12/11 08:31:18;;;;;;;7.45;6.60;;;2.80;99.90;;;;;;5090810;28;20048;-79
2021/12/11 08:33:45;;;;;;;6.93;5.85;;;2.70;99.90;;;;;;5090692;28;20036;-79
2021/12/11 08:36:11;;;;;;;7.30;5.68;;;2.70;99.90;;;;;;5075187;28;20066;-79
2021/12/11 08:38:37;;;;;;;13.13;9.57;;;2.70;99.90;;;;;;5090378;28;20041;-79
2021/12/11 08:41:07;;;;;;;6.60;5.88;;;2.70;99.90;;;;;;5074501;28;20031;-79
2021/12/11 08:43:33;;;;;;;16.60;8.48;;;2.70;99.90;;;;;;5075211;28;20090;-77
2021/12/11 08:46:10;;;;;;;15.13;10.40;;;2.70;99.90;;;;;;5090632;28;20052;-79
2021/12/11 08:48:43;;;;;;;17.85;11.63;;;2.60;99.90;;;;;;5075095;28;20491;-79
2021/12/11 08:51:19;;;;;;;20.77;13.35;;;2.70;99.90;;;;;;5073802;28;20111;-79
2021/12/11 08:53:45;;;;;;;18.17;11.70;;;2.80;99.90;;;;;;5073601;28;20024;-77
2021/12/11 08:56:13;;;;;;;19.05;12.25;;;2.70;99.90;;;;;;5073752;28;20020;-79
2021/12/11 08:58:41;;;;;;;20.23;12.57;;;2.70;99.90;;;;;;5073718;28;20020;-79
2021/12/11 09:01:24;;;;;;;19.20;12.90;;;2.70;99.90;;;;;;5073472;28;20030;-78
2021/12/11 09:04:00;;;;;;;13.60;7.35;;;2.60;99.90;;;;;;5074907;28;20047;-79
2021/12/11 09:06:33;;;;;;;15.65;9.75;;;2.70;99.90;;;;;;5090560;28;20020;-78
2021/12/11 09:09:25;;;;;;;9.13;7.10;;;2.70;99.90;;;;;;5090394;28;20085;-78
2021/12/11 09:12:00;;;;;;;12.50;8.52;;;2.80;99.90;;;;;;5090400;28;20028;-78
2021/12/11 09:14:49;;;;;;;9.23;7.03;;;2.90;99.90;;;;;;5090206;28;20434;-78
2021/12/11 09:17:27;;;;;;;15.70;11.10;;;3.00;99.90;;;;;;5074819;28;20021;-78
2021/12/11 09:20:12;;;;;;;11.65;8.18;;;2.90;99.90;;;;;;5073272;28;20036;-78
2021/12/11 09:22:51;;;;;;;13.55;8.20;;;2.90;99.90;;;;;;5074527;28;20026;-78
2021/12/11 09:25:27;;;;;;;23.02;14.75;;;3.00;99.90;;;;;;5089996;28;20082;-78
2021/12/11 09:28:01;;;;;;;23.33;14.38;;;3.00;99.90;;;;;;5073396;28;20051;-81
2021/12/11 09:30:43;;;;;;;16.90;12.18;;;3.00;99.90;;;;;;5073343;28;20020;-81
2021/12/11 09:33:16;;;;;;;14.75;10.23;;;3.00;99.90;;;;;;5073151;28;20032;-81
2021/12/11 09:35:56;;;;;;;16.13;10.00;;;3.20;99.90;;;;;;5072871;28;20028;-82
2021/12/11 09:38:33;;;;;;;18.77;11.77;;;3.10;99.90;;;;;;5080748;28;20038;-82
2021/12/11 09:40:59;;;;;;;12.80;9.10;;;3.10;99.90;;;;;;5076471;28;20485;-81
2021/12/11 09:43:55;;;;;;;19.20;10.55;;;3.10;99.90;;;;;;5076401;28;20136;-82
2021/12/11 09:46:28;;;;;;;11.13;7.97;;;3.10;99.90;;;;;;5077077;28;20464;-82
2021/12/11 09:48:57;;;;;;;9.38;7.13;;;3.20;99.90;;;;;;5076970;28;20372;-82
2021/12/11 09:51:28;;;;;;;9.82;7.18;;;3.20;99.90;;;;;;5094271;28;20024;-81
2021/12/11 09:54:01;;;;;;;10.00;6.82;;;3.20;99.90;;;;;;5093779;28;20058;-81
2021/12/11 09:56:38;;;;;;;9.27;7.38;;;3.30;99.90;;;;;;5075870;28;20024;-82
2021/12/11 09:59:08;;;;;;;8.07;6.05;;;3.30;99.90;;;;;;5094396;28;20085;-81
2021/12/11 10:01:38;;;;;;;9.13;7.13;;;3.30;99.90;;;;;;5094388;28;20471;-81
2021/12/11 10:04:10;;;;;;;8.25;6.47;;;3.30;99.90;;;;;;5075906;28;20052;-81
2021/12/11 10:06:51;;;;;;;11.07;7.22;;;3.30;99.90;;;;;;5075769;28;20364;-82
2021/12/11 10:09:21;;;;;;;7.97;6.30;;;3.20;99.90;;;;;;5075863;28;20031;-82
2021/12/11 10:12:05;;;;;;;9.10;6.50;;;3.30;99.90;;;;;;5075713;28;20047;-82
2021/12/11 10:14:38;;;;;;;13.98;7.60;;;3.20;99.90;;;;;;5075662;28;20077;-81
2021/12/11 10:17:20;;;;;;;9.77;7.55;;;3.20;99.90;;;;;;5075518;28;20024;-80
2021/12/11 10:19:48;;;;;;;9.85;7.72;;;3.20;99.90;;;;;;5075553;28;20476;-82
2021/12/11 10:22:20;;;;;;;10.10;7.18;;;3.20;99.90;;;;;;5075258;28;20021;-82
2021/12/11 10:24:47;;;;;;;9.63;7.47;;;3.10;99.90;;;;;;5075532;28;20063;-82
2021/12/11 10:27:17;;;;;;;9.15;7.03;;;3.20;99.90;;;;;;5075413;28;20487;-81
2021/12/11 10:29:45;;;;;;;10.35;7.05;;;3.20;99.90;;;;;;5075502;28;20024;-82
2021/12/11 10:32:15;;;;;;;9.10;6.90;;;3.20;99.90;;;;;;5093487;28;20020;-82
2021/12/11 10:34:44;;;;;;;8.45;6.93;;;3.30;99.90;;;;;;5075296;28;20384;-82
2021/12/11 10:37:17;;;;;;;12.07;7.47;;;3.30;99.90;;;;;;5075514;28;20035;-83
2021/12/11 10:39:51;;;;;;;13.18;7.53;;;3.20;99.90;;;;;;5075223;28;20044;-82
2021/12/11 10:42:18;;;;;;;20.05;11.00;;;3.20;99.90;;;;;;5075315;28;20052;-82
2021/12/11 10:44:49;;;;;;;16.40;8.57;;;3.10;99.90;;;;;;5075167;28;20024;-82
2021/12/11 10:47:19;;;;;;;16.90;10.35;;;3.20;99.90;;;;;;5093559;28;20383;-82
2021/12/11 10:49:47;;;;;;;11.23;9.05;;;3.20;99.90;;;;;;5075269;28;20467;-81
2021/12/11 10:52:21;;;;;;;12.50;9.02;;;3.20;99.90;;;;;;5075116;28;20024;-82
2021/12/11 10:54:49;;;;;;;10.75;7.97;;;3.20;99.90;;;;;;5093293;28;20077;-82
2021/12/11 10:57:16;;;;;;;11.68;8.18;;;3.20;99.90;;;;;;5075213;28;20028;-83
2021/12/11 10:59:44;;;;;;;12.65;9.00;;;3.10;99.90;;;;;;5093179;28;20026;-83
2021/12/11 11:02:14;;;;;;;10.77;7.43;;;3.20;99.90;;;;;;5075064;28;20085;-82
2021/12/11 11:04:44;;;;;;;10.90;7.70;;;3.20;99.90;;;;;;5077461;28;20070;-81
2021/12/11 11:07:11;;;;;;;16.13;9.30;;;3.30;99.90;;;;;;5079150;28;20031;-82
2021/12/11 11:09:37;;;;;;;11.95;8.27;;;3.30;99.90;;;;;;5079513;28;20036;-82
2021/12/11 11:12:06;;;;;;;13.77;8.90;;;3.30;99.90;;;;;;5097417;28;20028;-82
2021/12/11 11:14:33;;;;;;;10.38;6.90;;;3.30;99.90;;;;;;5078906;28;20472;-82
2021/12/11 11:17:07;;;;;;;11.32;7.75;;;3.30;99.90;;;;;;5097071;28;20103;-82
2021/12/11 11:19:38;;;;;;;12.65;7.00;;;3.30;99.90;;;;;;5097374;28;20023;-82
2021/12/11 11:22:08;;;;;;;9.00;7.07;;;3.30;99.90;;;;;;5078949;28;20024;-82
2021/12/11 11:24:38;;;;;;;10.98;7.10;;;3.40;99.90;;;;;;5079129;28;20024;-82
2021/12/11 11:27:05;;;;;;;8.82;6.95;;;3.30;99.90;;;;;;5078720;28;20106;-82
2021/12/11 11:29:32;;;;;;;8.77;7.22;;;3.30;99.90;;;;;;5078600;28;20024;-81
2021/12/11 11:32:03;;;;;;;8.15;6.65;;;3.20;99.90;;;;;;5078527;28;20085;-82
2021/12/11 11:34:31;;;;;;;8.75;6.03;;;3.30;99.90;;;;;;5078554;28;20104;-81
2021/12/11 11:37:02;;;;;;;10.65;7.75;;;3.30;99.90;;;;;;5097000;28;20047;-81
2021/12/11 11:39:28;;;;;;;9.43;7.20;;;3.30;99.90;;;;;;5096582;28;20036;-81
2021/12/11 11:41:58;;;;;;;9.48;7.80;;;3.40;99.90;;;;;;5096809;28;20020;-81
2021/12/11 11:44:27;;;;;;;11.15;8.27;;;3.40;99.90;;;;;;5078348;28;20055;-81
2021/12/11 11:46:54;;;;;;;10.00;7.30;;;3.40;99.90;;;;;;5078226;28;20024;-81
2021/12/11 11:49:20;;;;;;;10.90;7.60;;;3.40;99.90;;;;;;5078553;28;20031;-81
2021/12/11 11:51:51;;;;;;;10.75;8.32;;;3.40;99.90;;;;;;5078209;28;20024;-81
2021/12/11 11:54:19;;;;;;;11.23;8.23;;;3.40;99.90;;;;;;5077942;28;20062;-82
2021/12/11 11:56:49;;;;;;;9.93;7.85;;;3.40;99.90;;;;;;5078161;28;20020;-83
2021/12/11 11:59:16;;;;;;;9.98;7.05;;;3.40;99.90;;;;;;5078095;28;20020;-82
2021/12/11 12:01:51;;;;;;;9.57;6.32;;;3.50;99.90;;;;;;5078067;28;20027;-82
2021/12/11 12:04:20;;;;;;;10.52;7.55;;;3.50;99.90;;;;;;5078013;28;20158;-82
2021/12/11 12:06:53;;;;;;;8.30;5.57;;;3.50;99.90;;;;;;5077956;28;20031;-81
2021/12/11 12:09:20;;;;;;;10.05;6.70;;;3.50;99.90;;;;;;5096229;28;20024;-82
2021/12/11 12:11:45;;;;;;;9.93;6.80;;;3.40;99.90;;;;;;5095959;28;20020;-82
2021/12/11 12:14:22;;;;;;;9.82;7.10;;;3.50;99.90;;;;;;5077513;28;20031;-83
2021/12/11 12:16:49;;;;;;;11.27;8.23;;;3.50;99.90;;;;;;5076850;28;20020;-83
2021/12/11 12:19:17;;;;;;;10.55;7.55;;;3.50;99.90;;;;;;5077609;28;20132;-82
2021/12/11 12:21:45;;;;;;;8.75;6.03;;;3.40;99.90;;;;;;5095962;28;20124;-82
2021/12/11 12:24:11;;;;;;;8.30;6.07;;;3.40;99.90;;;;;;5077649;28;20391;-81
2021/12/11 12:26:39;;;;;;;8.23;6.35;;;3.40;99.90;;;;;;5095881;28;20024;-80
2021/12/11 12:29:08;;;;;;;8.60;6.50;;;3.40;99.90;;;;;;5096153;28;20099;-81
2021/12/11 12:31:39;;;;;;;6.50;5.35;;;3.40;99.90;;;;;;5077797;28;20395;-81
2021/12/11 12:34:11;;;;;;;9.60;6.70;;;3.50;99.90;;;;;;5077464;28;20034;-82
2021/12/11 12:36:38;;;;;;;7.47;6.20;;;3.50;99.90;;;;;;5077763;28;20455;-82
2021/12/11 12:39:07;;;;;;;8.73;6.32;;;3.50;99.90;;;;;;5095234;28;20040;-82
2021/12/11 12:41:38;;;;;;;12.07;7.28;;;3.50;99.90;;;;;;5077623;28;20024;-82
2021/12/11 12:44:17;;;;;;;18.88;10.75;;;3.50;99.90;;;;;;5095661;28;20024;-82
2021/12/11 12:46:46;;;;;;;10.18;7.25;;;3.50;99.90;;;;;;5096516;28;20024;-82
2021/12/11 12:49:12;;;;;;;20.77;10.68;;;3.50;99.90;;;;;;5095470;28;20027;-82
2021/12/11 12:51:38;;;;;;;13.15;8.55;;;3.50;99.90;;;;;;5077280;28;20508;-82
2021/12/11 12:54:07;;;;;;;17.90;9.40;;;3.50;99.90;;;;;;5095366;28;20024;-82
2021/12/11 12:56:42;;;;;;;12.75;8.57;;;3.50;99.90;;;;;;5077175;28;20016;-81
2021/12/11 12:59:19;;;;;;;10.18;7.35;;;3.40;99.90;;;;;;5077335;28;20023;-82
2021/12/11 13:01:51;;;;;;;12.20;7.78;;;3.40;99.90;;;;;;5076814;28;20482;-82
2021/12/11 13:04:23;;;;;;;8.13;6.97;;;3.40;99.90;;;;;;5095587;28;20028;-82
2021/12/11 13:06:55;;;;;;;12.20;8.18;;;3.40;99.90;;;;;;5095096;28;20024;-82
2021/12/11 13:09:33;;;;;;;7.88;5.68;;;3.40;99.90;;;;;;5076610;28;20031;-82
2021/12/11 13:12:25;;;;;;;8.50;6.85;;;3.40;99.90;;;;;;5094656;28;20032;-81
2021/12/11 13:14:55;;;;;;;9.95;6.80;;;3.50;99.90;;;;;;5076680;28;20024;-82
2021/12/11 13:17:27;;;;;;;11.68;7.72;;;3.40;99.90;;;;;;5076486;28;20020;-82
2021/12/11 13:19:57;;;;;;;8.07;6.40;;;3.40;99.90;;;;;;5076772;28;20107;-82
2021/12/11 13:22:44;;;;;;;24.27;10.45;;;3.50;99.90;;;;;;5076544;28;20161;-81